San Antonio, Valles Caldera, New Mexico Weather observations

Data are for 10 minute period ending at time listed.
 Day   Time   Solar   Ave.   Ave.  Ave.  Vector  Max.   Baro.   Total    
  of    of     Rad.   Air    Rel.  Wind   Wind   Wind  Press.  Precip.   
Year   Day            Temp.  Hum.  Speed  Dir.   Gust                    
2017   (MST)  Kw/m2    F      %     mph   deg.    mph    mb.     in.     
-------------------------------------------------------------------------
 207   17:30   0.17   77.4    30    6.2   265    10.2   99999.0    0.00 
 207   17:40   0.20   77.6    30    6.6   277    10.2   99999.0    0.00 
 207   17:50   0.29   79.1    28    6.4   277     9.6   99999.0    0.00 
 207   18:00   0.23   79.3    28    6.0   279     8.4   99999.0    0.00 
 207   18:10   0.17   78.8    29    5.3   282     7.8   99999.0    0.00 
 207   18:20   0.16   78.4    29    4.1   293     6.6   99999.0    0.00 
 207   18:30   0.12   78.3    29    2.0   298     4.2   99999.0    0.00 
 207   18:40   0.11   78.3    30    3.5   300     7.8   99999.0    0.00 
 207   18:50   0.08   76.7    32    3.5   316     7.8   99999.0    0.00 
 207   19:00   0.04   75.8    33    2.8   340     5.4   99999.0    0.00 
 207   19:10   0.02   74.2    36    1.6   352     3.0   99999.0    0.00 
 207   19:20   0.01   71.9    40    1.0    13     2.4   99999.0    0.00 
 207   19:30   0.00   68.2    47    2.1   114     3.6   99999.0    0.00 
 207   19:40   0.00   66.9    49    2.4    38     3.6   99999.0    0.00 
 207   19:50   0.00   66.8    49    2.4    25     4.8   99999.0    0.00 
 207   20:00   0.00   66.0    50    2.8    34     4.2   99999.0    0.00 
 207   20:10   0.00   65.2    52    2.4   360     4.8   99999.0    0.00 
 207   20:20   0.00   64.1    54    0.7   312     3.6   99999.0    0.00 
 207   20:30   0.00   63.9    55    0.6    21     1.8   99999.0    0.00 
 207   20:40   0.00   64.4    54    1.2    97     3.0   99999.0    0.00 
 207   20:50   0.00   63.5    57    0.6    32     1.8   99999.0    0.00 
 207   21:00   0.00   63.2    56    0.9   353     2.4   99999.0    0.00 
 207   21:10   0.00   62.2    60    2.2   284     4.2   99999.0    0.00 
 207   21:20   0.00   61.0    62    0.8   358     3.0   99999.0    0.00 
 207   21:30   0.00   61.1    61    1.0    46     2.4   99999.0    0.00 
 207   21:40   0.00   61.0    60    1.4    55     3.0   99999.0    0.00 
 207   21:50   0.00   60.3    62    0.6   333     2.4   99999.0    0.00 
 207   22:00   0.00   59.2    65    0.3    61     1.8   99999.0    0.00 
 207   22:10   0.00   58.8    64    0.5   342     2.4   99999.0    0.00 
 207   22:20   0.00   58.8    64    0.3    19     1.8   99999.0    0.00 
 207   22:30   0.00   58.4    65    0.2   311     1.2   99999.0    0.00 
 207   22:40   0.00   57.7    67    1.4   302     3.6   99999.0    0.00 
 207   22:50   0.00   56.7    70    1.6   310     3.0   99999.0    0.00 
 207   23:00   0.00   56.6    70    1.5    48     3.6   99999.0    0.00 
 207   23:10   0.00   57.6    69    1.9    60     4.2   99999.0    0.00 
 207   23:20   0.00   57.0    71    0.7   105     3.0   99999.0    0.00 
 207   23:30   0.00   57.5    70    5.5    99    12.5   99999.0    0.00 
 207   23:40   0.00   61.9    60    5.5    77     9.0   99999.0    0.00 
 207   23:50   0.00   63.6    56    4.2    86     8.4   99999.0    0.00 
 208    0:00   0.00   64.1    55    3.2    85     6.0   99999.0    0.00 
 208    0:10   0.00   62.0    62    4.5    99     8.4   99999.0    0.00 
 208    0:20   0.00   61.8    62    2.2   305     5.4   99999.0    0.00 
 208    0:30   0.00   60.1    66    1.6    70     3.6   99999.0    0.00 
 208    0:40   0.00   60.1    66    1.2   124     4.8   99999.0    0.00 
 208    0:50   0.00   59.5    68    2.5    63     6.0   99999.0    0.00 
 208    1:00   0.00   61.8    63    3.5   101     5.4   99999.0    0.00 
 208    1:10   0.00   63.3    60    4.4    84     7.2   99999.0    0.00 
 208    1:20   0.00   63.5    60    3.8    83     6.6   99999.0    0.00 
 208    1:30   0.00   63.1    61    5.1    85     8.4   99999.0    0.00 
 208    1:40   0.00   62.7    62    4.0    82     7.2   99999.0    0.00 
 208    1:50   0.00   62.5    63    4.8    86     8.4   99999.0    0.00 
 208    2:00   0.00   62.3    63    3.6    87     6.0   99999.0    0.00 
 208    2:10   0.00   60.7    66    1.2    82     3.6   99999.0    0.00 
 208    2:20   0.00   58.4    70    0.9   320     3.0   99999.0    0.00 
 208    2:30   0.00   57.0    74    1.2    20     3.0   99999.0    0.00 
 208    2:40   0.00   57.2    73    2.0   353     4.2   99999.0    0.00 
 208    2:50   0.00   55.1    76    0.1   294     1.8   99999.0    0.00 
 208    3:00   0.00   53.7    80    0.3     1     2.4   99999.0    0.00 
 208    3:10   0.00   53.9    81    1.1    71     2.4   99999.0    0.00 
 208    3:20   0.00   55.1    78    1.6    38     2.4   99999.0    0.00 
 208    3:30   0.00   55.5    76    0.8   288     3.0   99999.0    0.00 
 208    3:40   0.00   53.8    80    0.6   311     2.4   99999.0    0.00 
 208    3:50   0.00   52.7    82    0.7   322     3.0   99999.0    0.00 
 208    4:00   0.00   51.6    85    0.0   197     1.2   99999.0    0.00 
 208    4:10   0.00   51.8    86    0.0     0     0.0   99999.0    0.00 
 208    4:20   0.00   52.5    84    0.3   261     1.8   99999.0    0.00 
 208    4:30   0.00   52.4    84    0.7   144     1.8   99999.0    0.00 
 208    4:40   0.00   51.9    86    0.5    54     1.8   99999.0    0.00 
 208    4:50   0.00   51.6    86    0.0   274     1.2   99999.0    0.00 
 208    5:00   0.00   51.1    87    0.2   338     1.8   99999.0    0.00 
 208    5:10   0.00   51.0    86    1.4   336     4.2   99999.0    0.00 
 208    5:20   0.00   51.2    88    1.7    88     7.2   99999.0    0.00 
 208    5:30   0.01   53.0    83    1.1   180     6.0   99999.0    0.00 
 208    5:40   0.01   52.2    83    2.5   292     4.8   99999.0    0.00 
 208    5:50   0.02   51.1    86    0.3   325     3.0   99999.0    0.00 
 208    6:00   0.02   52.0    87    3.0   101     7.2   99999.0    0.00 
 208    6:10   0.03   56.9    78    6.3   112    10.8   99999.0    0.00 
 208    6:20   0.04   59.4    73    6.2   102    11.3   99999.0    0.00 
 208    6:30   0.03   60.3    72    7.7   101    12.5   99999.0    0.00 
 208    6:40   0.12   60.5    72    7.0    94    11.9   99999.0    0.00 
 208    6:50   0.24   62.3    68    8.0   103    15.5   99999.0    0.00 
 208    7:00   0.28   63.7    66    8.4   118    13.7   99999.0    0.00 
 208    7:10   0.30   64.1    66    8.5   120    14.3   99999.0    0.00 
 208    7:20   0.26   63.8    68    9.0   123    14.3   99999.0    0.00 
 208    7:30   0.16   62.0    72    8.4   130    13.7   99999.0    0.00 
 208    7:40   0.25   62.7    71    8.6   148    13.7   99999.0    0.00 
 208    7:50   0.45   65.4    65    9.0   144    13.1   99999.0    0.00 
 208    8:00   0.48   66.5    63    7.8   143    12.5   99999.0    0.00 
 208    8:10   0.52   67.6    61    6.5   144    10.2   99999.0    0.00 
 208    8:20   0.55   68.6    59    6.8   132    10.8   99999.0    0.00 
 208    8:30   0.55   68.4    59    7.2   142    12.5   99999.0    0.00 
 208    8:40   0.63   69.0    58    5.1   133    11.9   99999.0    0.00 
 208    8:50   0.66   69.6    57    6.7   112    11.9   99999.0    0.00 
 208    9:00   0.67   68.9    58    7.7   106    11.3   99999.0    0.00 
 208    9:10   0.71   68.8    58    8.9   116    13.7   99999.0    0.00 
 208    9:20   0.77   69.9    56    8.0   122    13.1   99999.0    0.00 
 208    9:30   0.81   70.7    54    7.4   123    13.7   99999.0    0.00 
 208    9:40   0.83   71.4    53    7.6   121    13.1   99999.0    0.00 
 208    9:50   0.75   71.3    53    7.2   128    14.9   99999.0    0.00 
 208   10:00   0.34   70.9    54    5.5    98     9.6   99999.0    0.00 
 208   10:10   0.08   66.0    71    3.2    25     6.6   99999.0    0.18 
 208   10:20   0.09   59.2    75    8.6   207    23.3   99999.0    0.20 
 208   10:30   0.14   57.1    86    4.0    57     6.6   99999.0    0.00 
 208   10:40   0.16   58.2    85    4.4    70     9.6   99999.0    0.00 
 208   10:50   0.16   59.0    86    3.7    63     6.6   99999.0    0.00 
 208   11:00   0.14   60.5    84    4.7    90     8.4   99999.0    0.00 
 208   11:10   0.13   60.5    83    6.7   121     9.6   99999.0    0.00 
 208   11:20   0.17   60.0    84    4.7    83     7.8   99999.0    0.00 
 208   11:30   0.16   60.7    84    3.7    93     7.2   99999.0    0.00 
 208   11:40   0.12   60.5    83    2.4    65     6.0   99999.0    0.00 
 208   11:50   0.09   60.2    86    2.3    88     5.4   99999.0    0.00 
 208   12:00   0.08   59.7    84    1.2    87     3.6   99999.0    0.00 
 208   12:10   0.06   59.7    89    1.5    56     3.0   99999.0    0.00 
 208   12:20   0.05   59.6    88    3.9   292     6.6   99999.0    0.00 
 208   12:30   0.04   59.4    88    3.2   105     4.2   99999.0    0.00 
 208   12:40   0.04   59.0    87    2.1    68     4.8   99999.0    0.00 
 208   12:50   0.04   59.2    89    1.4   343     3.0   99999.0    0.00 
 208   13:00   0.05   59.3    89    0.5   315     2.4   99999.0    0.00 
 208   13:10   0.06   59.5    89    2.3   346     3.6   99999.0    0.00 
 208   13:20   0.09   59.7    89    2.0   341     4.2   99999.0    0.01 
 208   13:30   0.11   59.9    89    0.6   268     5.4   99999.0    0.01 
 208   13:40   0.14   60.0    88    2.0     4     4.8   99999.0    0.00 
 208   13:50   0.18   60.3    86    1.6    62     5.4   99999.0    0.00 
 208   14:00   0.06   60.9    81    1.4    84     5.4   99999.0    0.00 
 208   14:10   0.27   61.9    80    3.2   204     5.4   99999.0    0.00 
 208   14:20   0.26   62.0    83    4.9   277     8.4   99999.0    0.00 
 208   14:30   0.24   61.6    80    5.0   258     7.8   99999.0    0.00 
 208   14:40   0.24   61.2    81    2.0   249     4.8   99999.0    0.00 
 208   14:50   0.25   61.9    79    1.5   155     3.6   99999.0    0.00 
 208   15:00   0.66   64.2    76    1.7   230     3.6   99999.0    0.00 
 208   15:10   0.78   67.6    57    2.4   187     5.4   99999.0    0.00 
 208   15:20   0.68   70.2    53    4.1   235     8.4   99999.0    0.00 
 208   15:30   0.22   68.0    56    1.3   239     5.4   99999.0    0.00 
 208   15:40   0.32   68.2    57    0.7    82     2.4   99999.0    0.00 
 208   15:50   0.70   70.7    54    1.8   187     4.8   99999.0    0.00 
 208   16:00   0.83   73.0    43    4.0   127     7.8   99999.0    0.00 
 208   16:10   0.84   74.3    41    3.6   167     7.8   99999.0    0.00 
 208   16:20   0.58   74.7    40    3.8   179     7.8   99999.0    0.00 
 208   16:30   0.27   72.3    42    2.8   193     6.6   99999.0    0.00 
 208   16:40   0.15   71.2    45    0.6   126     2.4   99999.0    0.00 
 208   16:50   0.14   70.9    52    0.2    37     1.2   99999.0    0.00 
 208   17:00   0.12   69.6    59    0.9    91     3.0   99999.0    0.00 
 208   17:10   0.11   68.7    63    2.6   112     5.4   99999.0    0.00 
 208   17:20   0.12   68.2    63    3.3   121     6.0   99999.0    0.00 

Return to San Antonio, Valles Caldera graphs page.


Western Regional Climate Center,wrcc@dri.edu